ADC006 SKAR-SKPS
Flight info
| Callsign | ADC006 |
|---|---|
| Flight time | 1h 3m |
| Altitude | 20000 |
| Route | TORO2D TOROL W3 CLO G675 MER |
| Aircraft | AT75/M-SKBO/2200 |
Departure
| Time | 2026-04-23 15:05 |
|---|---|
| Airport | El Eden Airport (SKAR) |
Arrival
| Time | 2026-04-23 16:09 |
|---|---|
| Airport | Antonio Nariño Airport (SKPS) |
| Time | Latitude | Longitude | Altitude | Speed | Heading |
|---|---|---|---|---|---|
| 2026-04-23 15:05 | 4.34216 | -75.91599 | 7665 ft | 238 kts | 258° |
| 2026-04-23 15:05 | 4.33863 | -75.93222 | 7942 ft | 237 kts | 260° |
| 2026-04-23 15:06 | 4.33565 | -75.94841 | 8216 ft | 237 kts | 262° |
| 2026-04-23 15:06 | 4.33299 | -75.96455 | 8488 ft | 237 kts | 262° |
| 2026-04-23 15:06 | 4.33048 | -75.98083 | 8764 ft | 236 kts | 262° |
| 2026-04-23 15:06 | 4.32800 | -75.99719 | 9042 ft | 235 kts | 262° |
| 2026-04-23 15:07 | 4.32441 | -76.01315 | 9316 ft | 235 kts | 254° |
| 2026-04-23 15:07 | 4.31885 | -76.02837 | 9592 ft | 234 kts | 248° |
| 2026-04-23 15:07 | 4.31198 | -76.04325 | 9871 ft | 234 kts | 244° |
| 2026-04-23 15:07 | 4.30443 | -76.05771 | 10070 ft | 237 kts | 242° |
| 2026-04-23 15:08 | 4.29636 | -76.07223 | 10175 ft | 242 kts | 241° |
| 2026-04-23 15:08 | 4.28780 | -76.08715 | 10201 ft | 247 kts | 240° |
| 2026-04-23 15:08 | 4.27902 | -76.10209 | 10205 ft | 252 kts | 238° |
| 2026-04-23 15:09 | 4.25442 | -76.12762 | 10211 ft | 259 kts | 219° |
| 2026-04-23 15:09 | 4.23963 | -76.13829 | 10209 ft | 261 kts | 215° |
| 2026-04-23 15:09 | 4.22421 | -76.14816 | 10207 ft | 263 kts | 213° |
| 2026-04-23 15:09 | 4.20869 | -76.15743 | 10205 ft | 264 kts | 211° |
| 2026-04-23 15:10 | 4.19263 | -76.16669 | 10202 ft | 265 kts | 211° |
| 2026-04-23 15:10 | 4.17667 | -76.17572 | 10195 ft | 266 kts | 210° |
| 2026-04-23 15:10 | 4.16045 | -76.18484 | 10180 ft | 266 kts | 210° |
| 2026-04-23 15:10 | 4.14416 | -76.19399 | 10174 ft | 267 kts | 210° |
| 2026-04-23 15:11 | 4.12800 | -76.20308 | 10168 ft | 267 kts | 210° |
| 2026-04-23 15:11 | 4.11171 | -76.21175 | 10154 ft | 268 kts | 207° |
| 2026-04-23 15:11 | 4.09467 | -76.21897 | 10330 ft | 261 kts | 202° |
| 2026-04-23 15:11 | 4.07775 | -76.22500 | 10603 ft | 254 kts | 200° |
| 2026-04-23 15:12 | 4.06117 | -76.23028 | 10872 ft | 248 kts | 199° |
| 2026-04-23 15:12 | 4.04470 | -76.23516 | 11144 ft | 244 kts | 198° |
| 2026-04-23 15:12 | 4.02845 | -76.23976 | 11415 ft | 242 kts | 197° |
| 2026-04-23 15:12 | 4.01232 | -76.24420 | 11687 ft | 241 kts | 197° |
| 2026-04-23 15:13 | 3.99603 | -76.24860 | 11963 ft | 240 kts | 197° |
| 2026-04-23 15:13 | 3.97992 | -76.25291 | 12238 ft | 240 kts | 197° |
| 2026-04-23 15:13 | 3.96371 | -76.25722 | 12512 ft | 240 kts | 196° |
| 2026-04-23 15:13 | 3.94757 | -76.26150 | 12787 ft | 241 kts | 196° |
| 2026-04-23 15:14 | 3.93131 | -76.26580 | 13062 ft | 241 kts | 196° |
| 2026-04-23 15:14 | 3.91507 | -76.27009 | 13339 ft | 241 kts | 196° |
| 2026-04-23 15:14 | 3.89893 | -76.27436 | 13610 ft | 242 kts | 196° |
| 2026-04-23 15:14 | 3.88271 | -76.27864 | 13885 ft | 242 kts | 196° |
| 2026-04-23 15:15 | 3.86623 | -76.28299 | 14163 ft | 243 kts | 196° |
| 2026-04-23 15:15 | 3.85002 | -76.28727 | 14436 ft | 243 kts | 196° |
| 2026-04-23 15:15 | 3.83364 | -76.29160 | 14711 ft | 244 kts | 196° |
| 2026-04-23 15:15 | 3.81717 | -76.29595 | 14986 ft | 244 kts | 196° |
| 2026-04-23 15:16 | 3.80083 | -76.30027 | 15258 ft | 245 kts | 196° |
| 2026-04-23 15:16 | 3.78424 | -76.30467 | 15533 ft | 247 kts | 196° |
| 2026-04-23 15:16 | 3.76753 | -76.30910 | 15809 ft | 248 kts | 196° |
| 2026-04-23 15:16 | 3.75079 | -76.31355 | 16085 ft | 249 kts | 196° |
| 2026-04-23 15:17 | 3.73391 | -76.31803 | 16361 ft | 251 kts | 196° |
| 2026-04-23 15:17 | 3.71694 | -76.32253 | 16637 ft | 252 kts | 196° |
| 2026-04-23 15:17 | 3.69995 | -76.32704 | 16912 ft | 253 kts | 195° |
| 2026-04-23 15:17 | 3.68285 | -76.33159 | 17188 ft | 255 kts | 195° |
| 2026-04-23 15:18 | 3.66592 | -76.33608 | 17461 ft | 256 kts | 194° |
| 2026-04-23 15:18 | 3.64851 | -76.34072 | 17740 ft | 256 kts | 194° |
| 2026-04-23 15:18 | 3.63137 | -76.34525 | 18013 ft | 257 kts | 194° |
| 2026-04-23 15:18 | 3.61406 | -76.34983 | 18288 ft | 258 kts | 194° |
| 2026-04-23 15:19 | 3.59667 | -76.35444 | 18564 ft | 259 kts | 194° |
| 2026-04-23 15:19 | 3.57904 | -76.35911 | 18843 ft | 259 kts | 194° |
| 2026-04-23 15:19 | 3.56157 | -76.36374 | 19119 ft | 260 kts | 194° |
| 2026-04-23 15:19 | 3.54422 | -76.36834 | 19392 ft | 260 kts | 194° |
| 2026-04-23 15:20 | 3.52663 | -76.37301 | 19668 ft | 260 kts | 194° |
| 2026-04-23 15:20 | 3.50927 | -76.37762 | 19935 ft | 261 kts | 194° |
| 2026-04-23 15:20 | 3.49145 | -76.38235 | 20095 ft | 266 kts | 194° |
| 2026-04-23 15:20 | 3.47326 | -76.38717 | 20152 ft | 274 kts | 194° |
| 2026-04-23 15:21 | 3.45454 | -76.39212 | 20163 ft | 281 kts | 194° |
| 2026-04-23 15:21 | 3.43555 | -76.39718 | 20163 ft | 287 kts | 194° |
| 2026-04-23 15:21 | 3.41626 | -76.40328 | 20161 ft | 290 kts | 198° |
| 2026-04-23 15:21 | 3.39751 | -76.41027 | 20158 ft | 292 kts | 200° |
| 2026-04-23 15:22 | 3.37841 | -76.41805 | 20153 ft | 294 kts | 202° |
| 2026-04-23 15:22 | 3.35967 | -76.42611 | 20151 ft | 294 kts | 202° |
| 2026-04-23 15:22 | 3.34100 | -76.43438 | 20149 ft | 295 kts | 203° |
| 2026-04-23 15:22 | 3.32217 | -76.44286 | 20145 ft | 295 kts | 204° |
| 2026-04-23 15:23 | 3.30352 | -76.45137 | 20140 ft | 295 kts | 204° |
| 2026-04-23 15:23 | 3.28494 | -76.45988 | 20139 ft | 295 kts | 204° |
| 2026-04-23 15:23 | 3.26622 | -76.46850 | 20136 ft | 296 kts | 204° |
| 2026-04-23 15:23 | 3.24737 | -76.47719 | 20133 ft | 296 kts | 204° |
| 2026-04-23 15:24 | 3.22868 | -76.48581 | 20129 ft | 296 kts | 204° |
| 2026-04-23 15:24 | 3.21004 | -76.49441 | 20128 ft | 295 kts | 204° |
| 2026-04-23 15:24 | 3.19134 | -76.50305 | 20127 ft | 295 kts | 204° |
| 2026-04-23 15:24 | 3.17272 | -76.51165 | 20127 ft | 295 kts | 204° |
| 2026-04-23 15:25 | 3.15421 | -76.52019 | 20121 ft | 296 kts | 204° |
| 2026-04-23 15:25 | 3.13546 | -76.52884 | 20106 ft | 296 kts | 204° |
| 2026-04-23 15:25 | 3.11665 | -76.53753 | 20094 ft | 296 kts | 204° |
| 2026-04-23 15:25 | 3.09795 | -76.54616 | 20088 ft | 296 kts | 204° |
| 2026-04-23 15:26 | 3.07939 | -76.55473 | 20085 ft | 296 kts | 204° |
| 2026-04-23 15:26 | 3.06065 | -76.56339 | 20087 ft | 295 kts | 204° |
| 2026-04-23 15:26 | 3.04195 | -76.57202 | 20085 ft | 295 kts | 204° |
| 2026-04-23 15:26 | 3.02331 | -76.58063 | 20079 ft | 295 kts | 204° |
| 2026-04-23 15:27 | 3.00458 | -76.58928 | 20076 ft | 295 kts | 204° |
| 2026-04-23 15:27 | 2.98596 | -76.59788 | 20073 ft | 295 kts | 205° |
| 2026-04-23 15:27 | 2.96727 | -76.60651 | 20059 ft | 295 kts | 205° |
| 2026-04-23 15:27 | 2.94866 | -76.61511 | 20051 ft | 295 kts | 205° |
| 2026-04-23 15:28 | 2.92991 | -76.62378 | 20048 ft | 295 kts | 205° |
| 2026-04-23 15:28 | 2.91134 | -76.63237 | 20047 ft | 295 kts | 205° |
| 2026-04-23 15:28 | 2.89270 | -76.64098 | 20045 ft | 295 kts | 205° |
| 2026-04-23 15:28 | 2.87419 | -76.64955 | 20046 ft | 295 kts | 204° |
| 2026-04-23 15:29 | 2.85543 | -76.65822 | 20048 ft | 295 kts | 204° |
| 2026-04-23 15:29 | 2.83696 | -76.66676 | 20048 ft | 295 kts | 204° |
| 2026-04-23 15:29 | 2.81830 | -76.67539 | 20048 ft | 295 kts | 204° |
| 2026-04-23 15:29 | 2.79962 | -76.68402 | 20042 ft | 295 kts | 205° |
| 2026-04-23 15:30 | 2.78095 | -76.69265 | 20031 ft | 295 kts | 205° |
| 2026-04-23 15:30 | 2.76234 | -76.70124 | 20026 ft | 294 kts | 205° |
| 2026-04-23 15:30 | 2.74382 | -76.70981 | 20024 ft | 294 kts | 205° |
| 2026-04-23 15:30 | 2.72513 | -76.71845 | 20022 ft | 294 kts | 205° |
| 2026-04-23 15:31 | 2.70681 | -76.72692 | 20022 ft | 294 kts | 205° |
| 2026-04-23 15:31 | 2.68815 | -76.73554 | 20022 ft | 294 kts | 205° |
| 2026-04-23 15:31 | 2.66949 | -76.74417 | 20022 ft | 294 kts | 205° |
| 2026-04-23 15:31 | 2.65096 | -76.75273 | 20022 ft | 294 kts | 205° |
| 2026-04-23 15:32 | 2.63261 | -76.76121 | 20021 ft | 294 kts | 205° |
| 2026-04-23 15:32 | 2.61390 | -76.76986 | 20015 ft | 293 kts | 205° |
| 2026-04-23 15:32 | 2.59532 | -76.77845 | 20011 ft | 293 kts | 205° |
| 2026-04-23 15:32 | 2.57683 | -76.78700 | 20010 ft | 293 kts | 205° |
| 2026-04-23 15:33 | 2.55836 | -76.79553 | 20010 ft | 293 kts | 205° |
| 2026-04-23 15:33 | 2.53973 | -76.80414 | 20011 ft | 293 kts | 205° |
| 2026-04-23 15:33 | 2.52140 | -76.81259 | 20013 ft | 293 kts | 205° |
| 2026-04-23 15:33 | 2.50267 | -76.82122 | 20014 ft | 293 kts | 205° |
| 2026-04-23 15:34 | 2.48436 | -76.82965 | 20015 ft | 293 kts | 205° |
| 2026-04-23 15:34 | 2.46564 | -76.83827 | 20015 ft | 293 kts | 205° |
| 2026-04-23 15:34 | 2.44730 | -76.84673 | 20015 ft | 293 kts | 205° |
| 2026-04-23 15:34 | 2.42875 | -76.85529 | 20014 ft | 293 kts | 205° |
| 2026-04-23 15:35 | 2.41028 | -76.86383 | 20013 ft | 293 kts | 205° |
| 2026-04-23 15:35 | 2.39172 | -76.87241 | 20014 ft | 293 kts | 205° |
| 2026-04-23 15:35 | 2.37325 | -76.88095 | 20018 ft | 293 kts | 205° |
| 2026-04-23 15:35 | 2.35456 | -76.88960 | 20031 ft | 293 kts | 205° |
| 2026-04-23 15:36 | 2.33622 | -76.89808 | 20037 ft | 293 kts | 205° |
| 2026-04-23 15:36 | 2.31760 | -76.90670 | 19919 ft | 297 kts | 205° |
| 2026-04-23 15:36 | 2.29859 | -76.91550 | 19629 ft | 305 kts | 205° |
| 2026-04-23 15:36 | 2.27917 | -76.92448 | 19288 ft | 310 kts | 205° |
| 2026-04-23 15:37 | 2.25944 | -76.93362 | 18940 ft | 314 kts | 205° |
| 2026-04-23 15:37 | 2.23942 | -76.94288 | 18590 ft | 317 kts | 205° |
| 2026-04-23 15:37 | 2.22591 | -76.94913 | 18355 ft | 319 kts | 205° |
| 2026-04-23 15:37 | 2.19905 | -76.96157 | 17890 ft | 320 kts | 204° |
| 2026-04-23 15:38 | 2.17873 | -76.97097 | 17539 ft | 321 kts | 204° |
| 2026-04-23 15:38 | 2.15838 | -76.98038 | 17188 ft | 321 kts | 204° |
| 2026-04-23 15:38 | 2.13814 | -76.98975 | 16838 ft | 321 kts | 204° |
| 2026-04-23 15:38 | 2.11802 | -76.99906 | 16490 ft | 320 kts | 204° |
| 2026-04-23 15:39 | 2.10442 | -77.00536 | 16254 ft | 319 kts | 204° |
| 2026-04-23 15:39 | 2.08427 | -77.01469 | 15903 ft | 318 kts | 204° |
| 2026-04-23 15:39 | 2.05769 | -77.02699 | 15439 ft | 317 kts | 204° |
| 2026-04-23 15:39 | 2.04425 | -77.03321 | 15203 ft | 316 kts | 204° |
| 2026-04-23 15:40 | 2.02449 | -77.04235 | 14855 ft | 314 kts | 204° |
| 2026-04-23 15:40 | 2.00451 | -77.05159 | 14502 ft | 313 kts | 204° |
| 2026-04-23 15:40 | 1.98484 | -77.06069 | 14152 ft | 311 kts | 204° |
| 2026-04-23 15:40 | 1.96541 | -77.06968 | 13804 ft | 309 kts | 204° |
| 2026-04-23 15:41 | 1.94576 | -77.07878 | 13451 ft | 307 kts | 204° |
| 2026-04-23 15:41 | 1.92651 | -77.08768 | 13232 ft | 301 kts | 204° |
| 2026-04-23 15:41 | 1.90787 | -77.09630 | 13162 ft | 293 kts | 204° |
| 2026-04-23 15:41 | 1.88933 | -77.10488 | 13148 ft | 287 kts | 204° |
| 2026-04-23 15:42 | 1.87157 | -77.11310 | 13147 ft | 283 kts | 204° |
| 2026-04-23 15:42 | 1.85372 | -77.12136 | 13150 ft | 280 kts | 205° |
| 2026-04-23 15:42 | 1.83610 | -77.12951 | 13144 ft | 279 kts | 205° |
| 2026-04-23 15:42 | 1.81830 | -77.13769 | 12970 ft | 284 kts | 204° |
| 2026-04-23 15:43 | 1.80005 | -77.14572 | 12679 ft | 289 kts | 204° |
| 2026-04-23 15:43 | 1.78147 | -77.15386 | 12380 ft | 292 kts | 204° |
| 2026-04-23 15:43 | 1.76286 | -77.16202 | 12081 ft | 293 kts | 204° |
| 2026-04-23 15:43 | 1.74392 | -77.17027 | 11777 ft | 294 kts | 204° |
| 2026-04-23 15:44 | 1.72526 | -77.17825 | 11479 ft | 294 kts | 204° |
| 2026-04-23 15:44 | 1.70627 | -77.18627 | 11176 ft | 294 kts | 204° |
| 2026-04-23 15:44 | 1.68741 | -77.19415 | 10876 ft | 293 kts | 204° |
| 2026-04-23 15:44 | 1.66866 | -77.20195 | 10576 ft | 293 kts | 204° |
| 2026-04-23 15:45 | 1.64975 | -77.20978 | 10129 ft | 297 kts | 203° |
| 2026-04-23 15:45 | 1.63111 | -77.21767 | 9657 ft | 289 kts | 203° |
| 2026-04-23 15:45 | 1.61263 | -77.22565 | 9174 ft | 282 kts | 204° |
| 2026-04-23 15:45 | 1.59489 | -77.23334 | 8701 ft | 277 kts | 204° |
| 2026-04-23 15:46 | 1.57752 | -77.24098 | 8302 ft | 270 kts | 204° |
| 2026-04-23 15:46 | 1.56074 | -77.24850 | 8159 ft | 257 kts | 204° |
| 2026-04-23 15:46 | 1.54494 | -77.25560 | 8043 ft | 248 kts | 204° |
| 2026-04-23 15:46 | 1.52899 | -77.26175 | 8002 ft | 238 kts | 196° |
| 2026-04-23 15:47 | 1.51289 | -77.26477 | 8001 ft | 232 kts | 188° |
| 2026-04-23 15:47 | 1.49697 | -77.26670 | 7998 ft | 228 kts | 186° |
| 2026-04-23 15:47 | 1.48140 | -77.26832 | 7992 ft | 226 kts | 186° |
| 2026-04-23 15:47 | 1.46555 | -77.26992 | 7825 ft | 228 kts | 186° |
| 2026-04-23 15:48 | 1.45156 | -77.27134 | 8034 ft | 155 kts | 185° |
| 2026-04-23 15:48 | 1.44158 | -77.27249 | 7822 ft | 152 kts | 189° |
| 2026-04-23 15:48 | 1.43064 | -77.27358 | 7275 ft | 161 kts | 186° |
| 2026-04-23 15:48 | 1.42014 | -77.27448 | 7285 ft | 140 kts | 186° |
| 2026-04-23 15:49 | 1.41134 | -77.27705 | 7300 ft | 133 kts | 213° |
| 2026-04-23 15:49 | 1.40639 | -77.28552 | 6858 ft | 169 kts | 258° |
| 2026-04-23 15:49 | 1.40856 | -77.29848 | 6460 ft | 201 kts | 298° |
| 2026-04-23 15:49 | 1.41793 | -77.30758 | 6884 ft | 181 kts | 328° |
| 2026-04-23 15:50 | 1.42885 | -77.31276 | 7346 ft | 169 kts | 337° |
| 2026-04-23 15:50 | 1.44001 | -77.31712 | 7807 ft | 171 kts | 338° |
| 2026-04-23 15:50 | 1.45126 | -77.32090 | 8247 ft | 173 kts | 347° |
| 2026-04-23 15:50 | 1.46325 | -77.32206 | 8700 ft | 174 kts | 358° |
| 2026-04-23 15:51 | 1.47533 | -77.32241 | 9160 ft | 174 kts | 2° |
| 2026-04-23 15:51 | 1.48733 | -77.32055 | 9617 ft | 173 kts | 12° |
| 2026-04-23 15:51 | 1.49901 | -77.31767 | 10064 ft | 174 kts | 14° |
| 2026-04-23 15:51 | 1.51082 | -77.31454 | 10487 ft | 177 kts | 13° |
| 2026-04-23 15:52 | 1.52265 | -77.31105 | 10918 ft | 181 kts | 14° |
| 2026-04-23 15:52 | 1.53546 | -77.30713 | 11014 ft | 202 kts | 15° |
| 2026-04-23 15:52 | 1.54966 | -77.30282 | 10947 ft | 223 kts | 15° |
| 2026-04-23 15:52 | 1.56494 | -77.29781 | 10795 ft | 241 kts | 22° |
| 2026-04-23 15:53 | 1.57836 | -77.28728 | 10631 ft | 253 kts | 50° |
| 2026-04-23 15:53 | 1.58581 | -77.27143 | 10479 ft | 256 kts | 78° |
| 2026-04-23 15:53 | 1.58699 | -77.25369 | 10344 ft | 255 kts | 93° |
| 2026-04-23 15:53 | 1.58567 | -77.23598 | 10195 ft | 255 kts | 96° |
| 2026-04-23 15:54 | 1.58319 | -77.21835 | 10033 ft | 256 kts | 98° |
| 2026-04-23 15:54 | 1.58025 | -77.20099 | 9874 ft | 256 kts | 99° |
| 2026-04-23 15:54 | 1.57593 | -77.18359 | 9686 ft | 256 kts | 112° |
| 2026-04-23 15:54 | 1.56536 | -77.16961 | 9535 ft | 256 kts | 139° |
| 2026-04-23 15:55 | 1.54971 | -77.16174 | 9379 ft | 253 kts | 166° |
| 2026-04-23 15:55 | 1.53207 | -77.16110 | 9237 ft | 251 kts | 186° |
| 2026-04-23 15:55 | 1.51545 | -77.16616 | 9085 ft | 251 kts | 204° |
| 2026-04-23 15:55 | 1.50163 | -77.17670 | 8882 ft | 254 kts | 230° |
| 2026-04-23 15:56 | 1.49386 | -77.19188 | 9316 ft | 225 kts | 248° |
| 2026-04-23 15:56 | 1.48765 | -77.20443 | 10451 ft | 178 kts | 241° |
| 2026-04-23 15:56 | 1.48143 | -77.21410 | 11202 ft | 166 kts | 236° |
| 2026-04-23 15:56 | 1.47590 | -77.22531 | 10976 ft | 202 kts | 256° |
| 2026-04-23 15:57 | 1.47402 | -77.23955 | 11205 ft | 203 kts | 269° |
| 2026-04-23 15:57 | 1.47789 | -77.25367 | 11107 ft | 223 kts | 299° |
| 2026-04-23 15:57 | 1.48920 | -77.26443 | 11150 ft | 231 kts | 328° |
| 2026-04-23 15:57 | 1.50487 | -77.26845 | 11179 ft | 239 kts | 357° |
| 2026-04-23 15:58 | 1.52128 | -77.26567 | 11230 ft | 242 kts | 13° |
| 2026-04-23 15:58 | 1.53785 | -77.26223 | 11259 ft | 243 kts | 5° |
| 2026-04-23 15:58 | 1.55459 | -77.26091 | 11250 ft | 244 kts | 1° |
| 2026-04-23 15:58 | 1.57132 | -77.26032 | 11541 ft | 234 kts | 359° |
| 2026-04-23 15:59 | 1.58737 | -77.25996 | 11811 ft | 230 kts | 359° |
| 2026-04-23 15:59 | 1.60332 | -77.25966 | 11939 ft | 233 kts | 359° |
| 2026-04-23 15:59 | 1.61982 | -77.25896 | 11985 ft | 238 kts | 6° |
| 2026-04-23 15:59 | 1.63588 | -77.25436 | 12009 ft | 243 kts | 17° |
| 2026-04-23 16:00 | 1.65209 | -77.24929 | 12005 ft | 246 kts | 14° |
| 2026-04-23 16:00 | 1.66862 | -77.24473 | 12002 ft | 247 kts | 13° |
| 2026-04-23 16:00 | 1.68544 | -77.24027 | 12000 ft | 248 kts | 13° |
| 2026-04-23 16:00 | 1.70219 | -77.23589 | 12000 ft | 248 kts | 13° |
| 2026-04-23 16:01 | 1.71877 | -77.23157 | 11999 ft | 249 kts | 13° |
| 2026-04-23 16:01 | 1.73553 | -77.22722 | 11998 ft | 249 kts | 13° |
| 2026-04-23 16:01 | 1.75142 | -77.22032 | 11972 ft | 252 kts | 35° |
| 2026-04-23 16:01 | 1.76264 | -77.20711 | 11965 ft | 251 kts | 63° |
| 2026-04-23 16:02 | 1.76688 | -77.19009 | 11759 ft | 254 kts | 90° |
| 2026-04-23 16:02 | 1.76311 | -77.17264 | 11365 ft | 261 kts | 116° |
| 2026-04-23 16:02 | 1.75203 | -77.15855 | 10972 ft | 264 kts | 142° |
| 2026-04-23 16:02 | 1.73558 | -77.15043 | 10578 ft | 266 kts | 167° |
| 2026-04-23 16:03 | 1.71736 | -77.15018 | 10189 ft | 266 kts | 191° |
| 2026-04-23 16:03 | 1.70039 | -77.15796 | 9770 ft | 272 kts | 216° |
| 2026-04-23 16:03 | 1.68745 | -77.17208 | 9341 ft | 276 kts | 234° |
| 2026-04-23 16:03 | 1.67734 | -77.18850 | 8900 ft | 279 kts | 241° |
| 2026-04-23 16:04 | 1.66717 | -77.20500 | 8450 ft | 281 kts | 234° |
| 2026-04-23 16:04 | 1.65393 | -77.21940 | 8126 ft | 276 kts | 221° |
| 2026-04-23 16:04 | 1.63877 | -77.23029 | 8041 ft | 264 kts | 210° |
| 2026-04-23 16:04 | 1.62221 | -77.23765 | 8007 ft | 254 kts | 199° |
| 2026-04-23 16:05 | 1.61101 | -77.24067 | 8002 ft | 249 kts | 193° |
| 2026-04-23 16:05 | 1.58849 | -77.24394 | 8002 ft | 242 kts | 186° |
| 2026-04-23 16:05 | 1.57193 | -77.24576 | 8000 ft | 240 kts | 186° |
| 2026-04-23 16:05 | 1.55533 | -77.24863 | 8000 ft | 241 kts | 192° |
| 2026-04-23 16:06 | 1.53907 | -77.25278 | 8001 ft | 242 kts | 196° |
| 2026-04-23 16:06 | 1.52291 | -77.25785 | 8002 ft | 242 kts | 198° |
| 2026-04-23 16:06 | 1.50693 | -77.26303 | 7999 ft | 243 kts | 198° |
| 2026-04-23 16:06 | 1.49068 | -77.26772 | 7793 ft | 232 kts | 195° |
| 2026-04-23 16:07 | 1.47660 | -77.27104 | 7698 ft | 193 kts | 193° |
| 2026-04-23 16:07 | 1.46379 | -77.27390 | 7294 ft | 189 kts | 193° |
| 2026-04-23 16:07 | 1.45177 | -77.27693 | 7091 ft | 162 kts | 195° |
| 2026-04-23 16:07 | 1.44169 | -77.27968 | 6844 ft | 143 kts | 195° |
| 2026-04-23 16:08 | 1.43207 | -77.28224 | 6508 ft | 143 kts | 195° |
| 2026-04-23 16:08 | 1.42252 | -77.28468 | 6330 ft | 138 kts | 195° |
| 2026-04-23 16:08 | 1.41335 | -77.28708 | 6160 ft | 136 kts | 195° |
| 2026-04-23 16:08 | 1.40443 | -77.28940 | 5999 ft | 120 kts | 194° |
| 2026-04-23 16:09 | 1.39753 | -77.29117 | 5957 ft | 87 kts | 194° |
| 2026-04-23 16:09 | 1.39539 | -77.29168 | 5956 ft | 0 kts | 194° |
| 2026-04-23 16:09 | 1.39538 | -77.29168 | 5956 ft | 0 kts | 192° |
| 2026-04-23 16:10 | 1.39516 | -77.29134 | 5956 ft | 11 kts | 103° |
| 2026-04-23 16:10 | 1.39519 | -77.29077 | 5956 ft | 10 kts | 15° |
| 2026-04-23 16:10 | 1.39564 | -77.29063 | 5956 ft | 10 kts | 27° |
| 2026-04-23 16:10 | 1.39576 | -77.29042 | 5956 ft | 5 kts | 99° |
| 2026-04-23 16:11 | 1.39575 | -77.29038 | 5956 ft | 0 kts | 105° |